Burleigh, Texas
Current Conditions -  °F | °C
As of 4:35 PM on Friday 24 Oct 2014 (Local Time) from K11R Reporting Station
Clear Clear  
Wind Chill: 83°   Ceiling: Unl
Heat Index: 83°   Visibility: 10mi
Dew Point: 56°   Wind: 5mph
Humidity: 40%   Direction: 20°NNE
Pressure: 30.1"   Gusts: NA
Location:  29.9944°N, 96.2595°W
Report Text: K11R 242135Z AUTO 02004KT 10SM CLR 28/13 A3010 RMK AO2 T02820133
Loading
Personal Weather Stations






























Interactive Weather Map
Tropical Storm Tracking
New forecast layout! Learn more

10-Day Weather Forecast

Advertisements
Track Severe Weather on mobile